CDT,Max TemperatureF,Mean TemperatureF,Min TemperatureF,Max Dew PointF,MeanDew PointF,Min DewpointF,Max Humidity, Mean Humidity, Min Humidity, Max Sea Level PressureIn, Mean Sea Level PressureIn, Min Sea Level PressureIn, Max VisibilityMiles, Mean VisibilityMiles, Min VisibilityMiles, Max Wind SpeedMPH, Mean Wind SpeedMPH, Max Gust SpeedMPH,PrecipitationIn, CloudCover, Events, WindDirDegrees
2013-3-1,58,45,32,34,30,26,96,64,32,30.19,30.12,30.05,10,10,10,18,5,25,0.00,1,,320
2013-3-2,45,37,28,28,24,21,92,68,43,30.27,30.20,30.16,10,10,9,20,8,25,0.00,4,,331
2013-3-3,55,41,27,30,23,16,76,49,22,30.29,30.21,30.14,10,10,10,14,5,18,0.00,0,,335
2013-3-4,70,51,31,52,40,27,85,61,37,30.14,30.05,29.96,10,10,10,23,9,35,0.00,1,,173
2013-3-5,74,58,41,58,50,38,83,63,43,30.20,30.03,29.94,10,10,9,26,8,33,T,4,Rain,255
2013-3-6,60,49,37,35,27,25,71,49,26,30.33,30.27,30.21,10,10,10,18,8,25,0.00,0,,333
2013-3-7,64,50,35,39,32,27,86,56,25,30.38,30.30,30.24,10,9,6,12,1,13,0.00,0,,53
2013-3-8,71,52,32,46,36,30,92,58,23,30.34,30.25,30.20,10,6,2,9,2,15,0.00,1,,64
2013-3-9,76,61,46,56,47,32,93,59,24,30.20,30.11,30.02,10,8,5,21,8,25,0.00,1,,148
2013-3-10,78,68,57,63,58,55,93,73,53,30.01,29.95,29.88,10,8,3,29,13,40,0.23,8,Rain,147
2013-3-11,67,54,41,64,48,37,93,72,51,30.04,29.93,29.82,10,7,2,22,8,30,1.11,7,Rain,308
2013-3-12,65,49,33,41,36,33,100,66,31,30.23,30.14,30.05,10,10,9,15,4,21,0.00,0,,340
2013-3-13,63,50,36,39,26,12,93,54,14,30.40,30.33,30.24,10,10,10,21,8,30,0.00,0,,337
2013-3-14,66,50,33,39,29,21,83,53,22,30.48,30.38,30.30,10,10,10,10,4,15,0.00,0,,352
2013-3-15,76,58,39,44,39,36,92,59,25,30.30,30.21,30.12,10,10,10,18,6,23,0.00,0,,213
2013-3-16,77,60,42,56,48,40,92,64,36,30.10,30.04,29.95,10,10,10,20,7,24,0.00,0,,203
2013-3-17,76,63,49,64,55,48,100,81,61,30.01,29.94,29.85,10,7,1,15,5,21,0.11,4,Rain-Thunderstorm,171
2013-3-18,83,71,59,66,61,54,93,70,47,29.95,29.86,29.74,10,9,2,26,8,38,0.29,6,Rain-Thunderstorm,179
2013-3-19,75,62,48,57,44,33,90,57,23,30.08,30.02,29.95,10,10,8,15,6,22,0.00,2,,23
2013-3-20,65,54,43,40,32,25,55,39,22,30.17,30.09,30.04,10,10,10,17,6,22,0.00,1,,359
2013-3-21,64,51,38,42,30,21,85,54,23,30.10,30.00,29.91,10,10,10,9,3,24,0.00,2,,52
2013-3-22,63,57,50,47,44,40,71,63,55,29.94,29.89,29.84,10,10,10,8,6,10,0.01,8,Rain,89
2013-3-23,67,62,57,61,58,48,93,83,72,29.87,29.74,29.58,10,7,0,10,4,14,0.05,8,Fog-Rain-Thunderstorm,108
2013-3-24,68,55,42,63,51,30,100,66,31,30.00,29.71,29.58,10,7,0,25,10,33,0.03,4,Fog-Rain,307
2013-3-25,56,45,34,28,24,17,75,49,22,30.28,30.14,30.03,10,10,10,18,11,36,0.00,0,,317
2013-3-26,54,43,31,26,24,20,72,50,28,30.41,30.34,30.29,10,10,10,18,8,23,0.00,0,,325
2013-3-27,61,45,28,34,27,21,92,58,23,30.46,30.37,30.30,10,10,10,13,1,,0.00,0,,14
2013-3-28,71,52,32,39,32,26,89,55,20,30.39,30.32,30.24,10,10,10,12,2,,0.00,0,,33
2013-3-29,75,56,37,52,41,32,92,59,25,30.34,30.26,30.18,10,10,7,16,5,29,0.00,0,,188
2013-3-30,76,62,48,56,51,46,93,65,36,30.20,30.12,30.01,10,10,9,17,6,24,0.00,1,,194
2013-3-31,76,64,51,63,57,49,93,75,57,30.05,29.98,29.85,10,8,2,33,4,46,0.32,5,Rain-Thunderstorm,248